This demonstration page uses our WeatherBlox Daily Observations layout. Learn more.

41.55636, -103.73856

Hourly Observations for August 23, 2019

Temp ( °F °C ) Dew Point ( °F °C ) Humidity (%) Winds ( mph kmh ) Pressure ( in mb ) Visibility ( mi km ) Precip ( " mm )
12:58 am 00:58 Cloudy 61 15.9 56 13.4 85 85 S 7 11 29.77 1008 10 16.09344 0 0
1:58 am 01:58 Mostly Cloudy 60 15.7 58 14.5 93 93 SE 9 15 29.8 1009 10 16.09344 0 0
2:58 am 02:58 Mostly Cloudy 61 16 59 15 94 94 S 9 15 29.8 1009 10 16.09344 0 0
3:58 am 03:58 Mostly Cloudy 61 16.3 60 15.6 96 96 S 13 20 29.8 1009 10 16.09344 0 0
4:58 am 04:58 Cloudy 61 16.2 60 15.6 96 96 S 13 20 29.8 1009 10 16.09344 0 0
5:58 am 05:58 Cloudy 63 17.4 58 14.3 82 82 S 12 19 29.83 1010 10 16.09344 0 0
6:58 am 06:58 Mostly Cloudy 64 17.7 59 15 84 84 S 20 31 29.85 1011 10 16.09344 0 0
7:58 am 07:58 Mostly Sunny 64 17.5 60 15.4 88 88 SSE 9 15 29.85 1011 10 16.09344 0 0
8:58 am 08:58 Mostly Cloudy 65 18.5 62 16.4 88 88 S 13 20 29.83 1010 10 16.09344 0 0
9:58 am 09:58 Mostly Cloudy 66 19.1 63 17 88 88 SSE 14 22 29.88 1012 10 16.09344 0 0
11:58 am 11:58 Mostly Cloudy 70 21.3 63 17.3 78 78 S 14 22 29.91 1013 10 16.09344 0 0
12:58 pm 12:58 Partly Cloudy 72 22.4 63 17.4 73 73 S 10 17 29.88 1012 10 16.09344 0 0
1:58 pm 13:58 Mostly Cloudy 73 23 64 17.7 72 72 SSE 15 24 29.88 1012 10 16.09344 0 0
2:58 pm 14:58 Mostly Cloudy 72 22.3 64 17.7 75 75 SE 16 26 29.88 1012 10 16.09344 0 0
3:58 pm 15:58 Partly Cloudy 72 22 63 17.4 75 75 SSE 18 30 29.85 1011 10 16.09344 0 0
4:58 pm 16:58 Sunny 72 22.1 62 16.7 72 72 SSE 21 33 29.83 1010 10 16.09344 0 0
5:58 pm 17:58 Sunny 69 20.4 62 16.7 79 79 SSE 15 24 29.85 1011 10 16.09344 0 0
6:58 pm 18:58 Mostly Cloudy 68 20.2 62 16.4 79 79 W 9 15 29.88 1012 10 16.09344 0 0
7:58 pm 19:58 Cloudy with Nearby Thunderstorms 62 16.8 52 11.3 70 70 NW 21 33 29.94 1014 10 16.09344 0 0
8:58 pm 20:58 Cloudy with Showers 55 12.9 53 11.6 92 92 E 17 28 29.91 1013 10 16.09344 0.31 7.874
9:58 pm 21:58 Cloudy with Light Showers 56 13.3 53 11.9 91 91 SE 15 24 29.97 1015 10 16.09344 0.01 0.254
10:58 pm 22:58 Cloudy with Light Showers 59 15 53 11.6 80 80 SSE 9 15 29.91 1013 10 16.09344 0 0
11:58 pm 23:58 Mostly Cloudy 57 14.1 53 11.8 86 86 S 6 9 29.94 1014 10 16.09344 0 0

Powered by AerisWeather